KPSPKIFP

Guest
Details From KPSP - Palm Springs Intl
To KIFP - Laughlin Bullhead Intl
Flight Number -
Tags generated
Created
Modified
Stats Distance 125 nm / 232 km
Max Altitude 7,000 ft / 2,134 m
Waypoints 3
Social Downloads 0
Likes 0
Share VATSIM

Download

Looking for another format? Having issues loading an existing format? Contact us
Advertisement - Login to hide

Notes

Basic altitude profile: - Ascent Rate: 700ft/min - Ascent Speed: 95kts - Cruise Altitude: 80ft - Cruise Speed: 130kts - Descent Rate: 700ft/min - Descent Speed: 120kts Options: - Use NATs: yes - Use PACOTS: yes - Use low airways: yes - Use high airways: no

Route

KPSP CLIPP KIFP

ID Type Via Altitude Latitude Longitude Leg Dist Tot Dist Heading (true) Name
O KPSP APT - 0 ft / 0 m 33.82968˚ -116.50622˚ - 0 nm - Palm Springs Intl
CLIPP FIX - 7,000 ft / 2,134 m 34.77825˚ -115.04570˚ 92 nm 92 nm 51° / 52° -
O KIFP APT - 0 ft / 0 m 35.15599˚ -114.55944˚ 32 nm 125 nm 46° / 47° Laughlin Bullhead Intl

Altitude Profile

Advertisement - Login to hide

KPSP

Details ICAO KPSP (PSP)
Name Palm Springs Intl
Region United States
Timezone America/Los_Angeles (UTC-8.0)
Stats Elevation 477 ft / 145 m (AMSL)
Location 33.829677° -116.506218°
Runways 2
Magnetic Variation 11.580° E

METAR

KPSP 140653Z AUTO 00000KT 10SM CLR 13/M08 A2996 RMK AO2 SLP143 T01281083

Decode

TAF

TAF KPSP 140538Z 1406/1506 VRB05KT P6SM SKC FM141300 35012G20KT P6SM SKC FM150000 32009KT P6SM SKC

Decode

Departure Runways

ID Width Length Bearing (true) Bearing (mag) Surface Threshold Offset Overrun Length
13L 75 ft / 23 m 4,958 ft / 1,511 m 143.52° 131.94° Asphalt 0 ft / 0 m 151 ft / 46 m
13R 151 ft / 46 m 10,012 ft / 3,052 m 143.52° 131.94° Asphalt 2,999 ft / 914 m 200 ft / 61 m
31L 151 ft / 46 m 10,012 ft / 3,052 m 323.53° 311.95° Asphalt 1,499 ft / 457 m 200 ft / 61 m
31R 75 ft / 23 m 4,958 ft / 1,511 m 323.53° 311.95° Asphalt 0 ft / 0 m 151 ft / 46 m

KIFP

Details ICAO KIFP
Name Laughlin Bullhead Intl
Region United States
Timezone America/Phoenix (UTC-7.0)
Stats Elevation 701 ft / 214 m (AMSL)
Location 35.155985° -114.559436°
Runways 1
Magnetic Variation 11.333° E

METAR

KIFP 140735Z AUTO 00000KT 10SM CLR 10/M18 A2995 RMK AO2

Decode

TAF

KIFP 140533Z 1406/1506 07005KT P6SM SCT250 FM140900 02012KT P6SM FEW250 FM141200 36022G32KT P6SM FEW250 FM141500 01030G38KT P6SM FEW250 FM150300 01022KT P6SM SCT250

Decode

Destination Runways

ID Width Length Bearing (true) Bearing (mag) Surface Threshold Offset Overrun Length
16 151 ft / 46 m 7,518 ft / 2,292 m 176.47° 165.14° Asphalt 0 ft / 0 m 699 ft / 213 m
34 151 ft / 46 m 7,518 ft / 2,292 m 356.47° 345.14° Asphalt 0 ft / 0 m 200 ft / 61 m

Popular Alternatives